sensor_id;sensor_type;location;lat;lon;timestamp;P1;durP1;ratioP1;P2;durP2;ratioP2
81591;SDS011;71014;53.394;6.724;2023-09-07T00:01:25;7.47;;;4.50;;
81591;SDS011;71014;53.394;6.724;2023-09-07T00:03:51;5.40;;;4.70;;
81591;SDS011;71014;53.394;6.724;2023-09-07T00:06:17;6.07;;;5.45;;
81591;SDS011;71014;53.394;6.724;2023-09-07T00:08:43;5.47;;;4.97;;
81591;SDS011;71014;53.394;6.724;2023-09-07T00:11:09;6.10;;;5.07;;
81591;SDS011;71014;53.394;6.724;2023-09-07T00:13:36;7.00;;;5.25;;
81591;SDS011;71014;53.394;6.724;2023-09-07T00:16:02;6.20;;;4.90;;
81591;SDS011;71014;53.394;6.724;2023-09-07T00:18:29;5.75;;;4.43;;
81591;SDS011;71014;53.394;6.724;2023-09-07T00:23:21;5.85;;;4.88;;
81591;SDS011;71014;53.394;6.724;2023-09-07T00:25:47;6.00;;;5.40;;
81591;SDS011;71014;53.394;6.724;2023-09-07T00:28:13;5.90;;;5.30;;
81591;SDS011;71014;53.394;6.724;2023-09-07T00:30:39;11.02;;;6.57;;
81591;SDS011;71014;53.394;6.724;2023-09-07T00:33:06;5.20;;;4.70;;
81591;SDS011;71014;53.394;6.724;2023-09-07T00:35:33;7.50;;;4.30;;
81591;SDS011;71014;53.394;6.724;2023-09-07T00:37:59;6.78;;;4.97;;
81591;SDS011;71014;53.394;6.724;2023-09-07T00:40:25;5.45;;;4.95;;
81591;SDS011;71014;53.394;6.724;2023-09-07T00:42:52;5.47;;;4.38;;
81591;SDS011;71014;53.394;6.724;2023-09-07T00:47:44;4.78;;;4.22;;
81591;SDS011;71014;53.394;6.724;2023-09-07T00:50:10;4.63;;;4.22;;
81591;SDS011;71014;53.394;6.724;2023-09-07T00:52:44;5.28;;;4.13;;
81591;SDS011;71014;53.394;6.724;2023-09-07T00:55:11;10.23;;;5.22;;
81591;SDS011;71014;53.394;6.724;2023-09-07T00:57:38;4.85;;;4.35;;
81591;SDS011;71014;53.394;6.724;2023-09-07T01:00:04;5.18;;;4.68;;
81591;SDS011;71014;53.394;6.724;2023-09-07T01:02:34;6.95;;;4.35;;
81591;SDS011;71014;53.394;6.724;2023-09-07T01:05:01;6.93;;;4.20;;
81591;SDS011;71014;53.394;6.724;2023-09-07T01:09:56;5.03;;;3.75;;
81591;SDS011;71014;53.394;6.724;2023-09-07T01:12:23;4.93;;;3.80;;
81591;SDS011;71014;53.394;6.724;2023-09-07T01:14:49;4.45;;;4.05;;
81591;SDS011;71014;53.394;6.724;2023-09-07T01:17:15;4.60;;;4.20;;
81591;SDS011;71014;53.394;6.724;2023-09-07T01:19:41;9.15;;;5.10;;
81591;SDS011;71014;53.394;6.724;2023-09-07T01:22:10;6.45;;;4.43;;
81591;SDS011;71014;53.394;6.724;2023-09-07T01:24:37;5.40;;;4.32;;
81591;SDS011;71014;53.394;6.724;2023-09-07T01:27:06;7.03;;;4.75;;
81591;SDS011;71014;53.394;6.724;2023-09-07T01:29:32;4.82;;;4.10;;
81591;SDS011;71014;53.394;6.724;2023-09-07T01:31:59;6.05;;;3.92;;
81591;SDS011;71014;53.394;6.724;2023-09-07T01:34:25;5.38;;;4.25;;
81591;SDS011;71014;53.394;6.724;2023-09-07T01:39:39;5.05;;;4.50;;
81591;SDS011;71014;53.394;6.724;2023-09-07T01:42:05;6.00;;;3.85;;
81591;SDS011;71014;53.394;6.724;2023-09-07T01:44:32;5.72;;;3.92;;
81591;SDS011;71014;53.394;6.724;2023-09-07T01:46:58;5.60;;;4.03;;
81591;SDS011;71014;53.394;6.724;2023-09-07T01:49:24;4.63;;;4.00;;
81591;SDS011;71014;53.394;6.724;2023-09-07T01:51:53;4.20;;;3.80;;
81591;SDS011;71014;53.394;6.724;2023-09-07T01:54:20;5.43;;;4.32;;
81591;SDS011;71014;53.394;6.724;2023-09-07T01:56:46;5.75;;;4.53;;
81591;SDS011;71014;53.394;6.724;2023-09-07T01:59:12;5.03;;;4.38;;
81591;SDS011;71014;53.394;6.724;2023-09-07T02:01:38;4.65;;;4.18;;
81591;SDS011;71014;53.394;6.724;2023-09-07T02:04:05;5.07;;;4.55;;
81591;SDS011;71014;53.394;6.724;2023-09-07T02:06:31;5.70;;;4.70;;
81591;SDS011;71014;53.394;6.724;2023-09-07T02:08:57;4.10;;;3.60;;
81591;SDS011;71014;53.394;6.724;2023-09-07T02:11:23;7.03;;;4.65;;
81591;SDS011;71014;53.394;6.724;2023-09-07T02:13:49;5.80;;;4.57;;
81591;SDS011;71014;53.394;6.724;2023-09-07T02:16:15;5.50;;;3.90;;
81591;SDS011;71014;53.394;6.724;2023-09-07T02:18:43;4.93;;;4.32;;
81591;SDS011;71014;53.394;6.724;2023-09-07T02:21:11;7.82;;;4.85;;
81591;SDS011;71014;53.394;6.724;2023-09-07T02:23:37;7.05;;;5.30;;
81591;SDS011;71014;53.394;6.724;2023-09-07T02:26:03;7.40;;;4.63;;
81591;SDS011;71014;53.394;6.724;2023-09-07T02:28:29;5.65;;;4.75;;
81591;SDS011;71014;53.394;6.724;2023-09-07T02:31:01;6.30;;;5.13;;
81591;SDS011;71014;53.394;6.724;2023-09-07T02:33:27;5.30;;;4.72;;
81591;SDS011;71014;53.394;6.724;2023-09-07T02:35:53;5.30;;;4.80;;
81591;SDS011;71014;53.394;6.724;2023-09-07T02:38:19;8.38;;;5.57;;
81591;SDS011;71014;53.394;6.724;2023-09-07T02:40:45;6.28;;;5.47;;
81591;SDS011;71014;53.394;6.724;2023-09-07T02:43:11;5.00;;;4.50;;
81591;SDS011;71014;53.394;6.724;2023-09-07T02:45:38;7.38;;;5.68;;
81591;SDS011;71014;53.394;6.724;2023-09-07T02:48:04;6.57;;;5.10;;
81591;SDS011;71014;53.394;6.724;2023-09-07T02:52:57;5.35;;;4.85;;
81591;SDS011;71014;53.394;6.724;2023-09-07T02:55:23;8.77;;;6.22;;
81591;SDS011;71014;53.394;6.724;2023-09-07T02:57:49;6.50;;;5.22;;
81591;SDS011;71014;53.394;6.724;2023-09-07T03:00:15;5.35;;;4.85;;
81591;SDS011;71014;53.394;6.724;2023-09-07T03:02:42;5.75;;;5.15;;
81591;SDS011;71014;53.394;6.724;2023-09-07T03:05:08;7.88;;;5.97;;
81591;SDS011;71014;53.394;6.724;2023-09-07T03:07:35;6.72;;;5.60;;
81591;SDS011;71014;53.394;6.724;2023-09-07T03:10:01;6.30;;;5.43;;
81591;SDS011;71014;53.394;6.724;2023-09-07T03:12:27;6.00;;;5.20;;
81591;SDS011;71014;53.394;6.724;2023-09-07T03:14:53;6.03;;;5.15;;
81591;SDS011;71014;53.394;6.724;2023-09-07T03:17:19;7.13;;;5.47;;
81591;SDS011;71014;53.394;6.724;2023-09-07T03:19:48;6.38;;;4.90;;
81591;SDS011;71014;53.394;6.724;2023-09-07T03:22:15;8.73;;;5.60;;
81591;SDS011;71014;53.394;6.724;2023-09-07T03:24:41;7.10;;;5.13;;
81591;SDS011;71014;53.394;6.724;2023-09-07T03:27:07;5.43;;;4.93;;
81591;SDS011;71014;53.394;6.724;2023-09-07T03:29:33;6.75;;;5.22;;
81591;SDS011;71014;53.394;6.724;2023-09-07T03:32:00;7.97;;;5.72;;
81591;SDS011;71014;53.394;6.724;2023-09-07T03:34:26;7.35;;;5.13;;
81591;SDS011;71014;53.394;6.724;2023-09-07T03:36:52;7.13;;;5.40;;
81591;SDS011;71014;53.394;6.724;2023-09-07T03:39:18;7.95;;;5.32;;
81591;SDS011;71014;53.394;6.724;2023-09-07T03:41:47;7.30;;;5.38;;
81591;SDS011;71014;53.394;6.724;2023-09-07T03:44:13;11.15;;;5.90;;
81591;SDS011;71014;53.394;6.724;2023-09-07T03:46:39;6.15;;;5.38;;
81591;SDS011;71014;53.394;6.724;2023-09-07T03:49:05;8.30;;;5.82;;
81591;SDS011;71014;53.394;6.724;2023-09-07T03:51:31;6.25;;;5.65;;
81591;SDS011;71014;53.394;6.724;2023-09-07T03:53:58;6.50;;;5.72;;
81591;SDS011;71014;53.394;6.724;2023-09-07T03:56:24;7.30;;;5.50;;
81591;SDS011;71014;53.394;6.724;2023-09-07T03:58:50;5.85;;;4.85;;
81591;SDS011;71014;53.394;6.724;2023-09-07T04:01:16;10.45;;;5.53;;
81591;SDS011;71014;53.394;6.724;2023-09-07T04:03:42;6.20;;;5.38;;
81591;SDS011;71014;53.394;6.724;2023-09-07T04:06:08;9.02;;;5.57;;
81591;SDS011;71014;53.394;6.724;2023-09-07T04:08:34;7.25;;;5.60;;
81591;SDS011;71014;53.394;6.724;2023-09-07T04:11:04;5.60;;;5.03;;
81591;SDS011;71014;53.394;6.724;2023-09-07T04:13:30;7.10;;;5.60;;
81591;SDS011;71014;53.394;6.724;2023-09-07T04:15:56;7.45;;;5.80;;
81591;SDS011;71014;53.394;6.724;2023-09-07T04:18:22;6.88;;;5.82;;
81591;SDS011;71014;53.394;6.724;2023-09-07T04:20:48;9.18;;;5.43;;
81591;SDS011;71014;53.394;6.724;2023-09-07T04:23:14;7.45;;;5.38;;
81591;SDS011;71014;53.394;6.724;2023-09-07T04:25:40;6.57;;;5.93;;
81591;SDS011;71014;53.394;6.724;2023-09-07T04:28:06;6.65;;;5.78;;
81591;SDS011;71014;53.394;6.724;2023-09-07T04:30:33;7.22;;;5.50;;
81591;SDS011;71014;53.394;6.724;2023-09-07T04:32:59;8.15;;;5.68;;
81591;SDS011;71014;53.394;6.724;2023-09-07T04:35:27;7.50;;;5.22;;
81591;SDS011;71014;53.394;6.724;2023-09-07T04:37:54;7.60;;;6.57;;
81591;SDS011;71014;53.394;6.724;2023-09-07T04:40:20;9.13;;;5.93;;
81591;SDS011;71014;53.394;6.724;2023-09-07T04:42:46;9.48;;;5.80;;
81591;SDS011;71014;53.394;6.724;2023-09-07T04:45:12;8.07;;;5.57;;
81591;SDS011;71014;53.394;6.724;2023-09-07T04:47:38;7.50;;;5.38;;
81591;SDS011;71014;53.394;6.724;2023-09-07T04:50:04;6.85;;;5.18;;
81591;SDS011;71014;53.394;6.724;2023-09-07T04:52:31;7.65;;;5.63;;
81591;SDS011;71014;53.394;6.724;2023-09-07T04:54:57;6.88;;;5.70;;
81591;SDS011;71014;53.394;6.724;2023-09-07T04:57:23;7.70;;;6.10;;
81591;SDS011;71014;53.394;6.724;2023-09-07T04:59:49;7.88;;;5.85;;
81591;SDS011;71014;53.394;6.724;2023-09-07T05:02:15;7.38;;;6.30;;
81591;SDS011;71014;53.394;6.724;2023-09-07T05:04:42;9.23;;;6.22;;
81591;SDS011;71014;53.394;6.724;2023-09-07T05:07:08;6.57;;;5.65;;
81591;SDS011;71014;53.394;6.724;2023-09-07T05:09:34;8.63;;;7.07;;
81591;SDS011;71014;53.394;6.724;2023-09-07T05:12:00;7.07;;;5.85;;
81591;SDS011;71014;53.394;6.724;2023-09-07T05:14:26;9.25;;;6.85;;
81591;SDS011;71014;53.394;6.724;2023-09-07T05:16:52;10.57;;;5.95;;
81591;SDS011;71014;53.394;6.724;2023-09-07T05:19:21;8.98;;;6.30;;
81591;SDS011;71014;53.394;6.724;2023-09-07T05:21:47;7.80;;;6.55;;
81591;SDS011;71014;53.394;6.724;2023-09-07T05:24:13;6.97;;;6.20;;
81591;SDS011;71014;53.394;6.724;2023-09-07T05:26:42;8.30;;;6.65;;
81591;SDS011;71014;53.394;6.724;2023-09-07T05:29:08;8.00;;;6.75;;
81591;SDS011;71014;53.394;6.724;2023-09-07T05:34:00;7.13;;;5.80;;
81591;SDS011;71014;53.394;6.724;2023-09-07T05:36:27;9.65;;;6.78;;
81591;SDS011;71014;53.394;6.724;2023-09-07T05:38:53;8.05;;;6.70;;
81591;SDS011;71014;53.394;6.724;2023-09-07T05:41:19;8.25;;;6.28;;
81591;SDS011;71014;53.394;6.724;2023-09-07T05:43:45;9.38;;;7.40;;
81591;SDS011;71014;53.394;6.724;2023-09-07T05:46:11;7.97;;;6.53;;
81591;SDS011;71014;53.394;6.724;2023-09-07T05:48:37;9.73;;;6.60;;
81591;SDS011;71014;53.394;6.724;2023-09-07T05:51:03;6.82;;;5.93;;
81591;SDS011;71014;53.394;6.724;2023-09-07T05:53:29;9.90;;;7.00;;
81591;SDS011;71014;53.394;6.724;2023-09-07T05:55:55;7.78;;;6.75;;
81591;SDS011;71014;53.394;6.724;2023-09-07T05:58:21;10.20;;;7.25;;
81591;SDS011;71014;53.394;6.724;2023-09-07T06:00:47;8.40;;;7.55;;
81591;SDS011;71014;53.394;6.724;2023-09-07T06:03:13;8.45;;;6.75;;
81591;SDS011;71014;53.394;6.724;2023-09-07T06:05:39;8.88;;;6.65;;
81591;SDS011;71014;53.394;6.724;2023-09-07T06:08:06;9.07;;;6.57;;
81591;SDS011;71014;53.394;6.724;2023-09-07T06:10:32;8.27;;;6.82;;
81591;SDS011;71014;53.394;6.724;2023-09-07T06:12:58;9.32;;;6.82;;
81591;SDS011;71014;53.394;6.724;2023-09-07T06:15:25;8.30;;;6.82;;
81591;SDS011;71014;53.394;6.724;2023-09-07T06:17:52;7.88;;;7.00;;
81591;SDS011;71014;53.394;6.724;2023-09-07T06:20:18;10.23;;;7.22;;
81591;SDS011;71014;53.394;6.724;2023-09-07T06:25:10;10.07;;;9.00;;
81591;SDS011;71014;53.394;6.724;2023-09-07T06:27:36;8.63;;;6.80;;
81591;SDS011;71014;53.394;6.724;2023-09-07T06:32:28;7.40;;;6.40;;
81591;SDS011;71014;53.394;6.724;2023-09-07T06:34:54;6.20;;;5.05;;
81591;SDS011;71014;53.394;6.724;2023-09-07T06:37:21;7.65;;;6.22;;
81591;SDS011;71014;53.394;6.724;2023-09-07T06:39:49;9.13;;;6.15;;
81591;SDS011;71014;53.394;6.724;2023-09-07T06:42:15;7.28;;;6.03;;
81591;SDS011;71014;53.394;6.724;2023-09-07T06:44:41;6.80;;;5.70;;
81591;SDS011;71014;53.394;6.724;2023-09-07T06:49:33;7.50;;;5.82;;
81591;SDS011;71014;53.394;6.724;2023-09-07T06:51:59;6.40;;;5.63;;
81591;SDS011;71014;53.394;6.724;2023-09-07T06:54:27;8.35;;;5.88;;
81591;SDS011;71014;53.394;6.724;2023-09-07T06:56:54;6.80;;;5.28;;
81591;SDS011;71014;53.394;6.724;2023-09-07T06:59:20;6.88;;;5.18;;
81591;SDS011;71014;53.394;6.724;2023-09-07T07:01:46;9.63;;;5.85;;
81591;SDS011;71014;53.394;6.724;2023-09-07T07:04:12;6.68;;;5.95;;
81591;SDS011;71014;53.394;6.724;2023-09-07T07:06:38;11.85;;;5.95;;
81591;SDS011;71014;53.394;6.724;2023-09-07T07:09:04;6.45;;;5.35;;
81591;SDS011;71014;53.394;6.724;2023-09-07T07:11:31;6.32;;;5.75;;
81591;SDS011;71014;53.394;6.724;2023-09-07T07:13:57;6.63;;;5.68;;
81591;SDS011;71014;53.394;6.724;2023-09-07T07:18:49;6.93;;;6.25;;
81591;SDS011;71014;53.394;6.724;2023-09-07T07:21:15;7.35;;;6.53;;
81591;SDS011;71014;53.394;6.724;2023-09-07T07:23:41;6.80;;;5.57;;
81591;SDS011;71014;53.394;6.724;2023-09-07T07:26:07;7.68;;;5.57;;
81591;SDS011;71014;53.394;6.724;2023-09-07T07:28:34;5.95;;;5.35;;
81591;SDS011;71014;53.394;6.724;2023-09-07T07:33:26;7.60;;;5.90;;
81591;SDS011;71014;53.394;6.724;2023-09-07T07:35:52;6.18;;;5.47;;
81591;SDS011;71014;53.394;6.724;2023-09-07T07:38:19;7.00;;;4.90;;
81591;SDS011;71014;53.394;6.724;2023-09-07T07:40:45;7.75;;;5.40;;
81591;SDS011;71014;53.394;6.724;2023-09-07T07:45:38;6.28;;;4.88;;
81591;SDS011;71014;53.394;6.724;2023-09-07T07:48:04;7.55;;;5.38;;
81591;SDS011;71014;53.394;6.724;2023-09-07T07:50:35;5.63;;;5.05;;
81591;SDS011;71014;53.394;6.724;2023-09-07T07:53:01;7.72;;;5.20;;
81591;SDS011;71014;53.394;6.724;2023-09-07T07:55:27;6.43;;;4.75;;
81591;SDS011;71014;53.394;6.724;2023-09-07T07:57:53;5.72;;;5.10;;
81591;SDS011;71014;53.394;6.724;2023-09-07T08:00:19;6.57;;;5.38;;
81591;SDS011;71014;53.394;6.724;2023-09-07T08:02:45;6.55;;;5.38;;
81591;SDS011;71014;53.394;6.724;2023-09-07T08:05:11;6.57;;;5.70;;
81591;SDS011;71014;53.394;6.724;2023-09-07T08:07:37;6.85;;;5.03;;
81591;SDS011;71014;53.394;6.724;2023-09-07T08:10:03;7.80;;;5.65;;
81591;SDS011;71014;53.394;6.724;2023-09-07T08:14:55;7.32;;;5.75;;
81591;SDS011;71014;53.394;6.724;2023-09-07T08:17:22;8.45;;;5.82;;
81591;SDS011;71014;53.394;6.724;2023-09-07T08:19:49;9.93;;;5.38;;
81591;SDS011;71014;53.394;6.724;2023-09-07T08:22:20;5.68;;;5.00;;
81591;SDS011;71014;53.394;6.724;2023-09-07T08:24:46;7.22;;;5.47;;
81591;SDS011;71014;53.394;6.724;2023-09-07T08:27:13;8.13;;;5.20;;
81591;SDS011;71014;53.394;6.724;2023-09-07T08:29:43;5.40;;;4.90;;
81591;SDS011;71014;53.394;6.724;2023-09-07T08:32:12;7.95;;;5.03;;
81591;SDS011;71014;53.394;6.724;2023-09-07T08:34:39;5.55;;;4.90;;
81591;SDS011;71014;53.394;6.724;2023-09-07T08:37:06;5.25;;;4.68;;
81591;SDS011;71014;53.394;6.724;2023-09-07T08:39:34;5.93;;;5.32;;
81591;SDS011;71014;53.394;6.724;2023-09-07T08:42:01;8.15;;;5.78;;
81591;SDS011;71014;53.394;6.724;2023-09-07T08:44:27;7.32;;;5.55;;
81591;SDS011;71014;53.394;6.724;2023-09-07T08:46:54;6.32;;;5.25;;
81591;SDS011;71014;53.394;6.724;2023-09-07T08:51:48;7.18;;;5.15;;
81591;SDS011;71014;53.394;6.724;2023-09-07T08:56:40;7.93;;;5.18;;
81591;SDS011;71014;53.394;6.724;2023-09-07T08:59:06;7.63;;;5.47;;
81591;SDS011;71014;53.394;6.724;2023-09-07T09:03:58;7.72;;;4.93;;
81591;SDS011;71014;53.394;6.724;2023-09-07T09:11:19;6.45;;;4.90;;
81591;SDS011;71014;53.394;6.724;2023-09-07T09:13:45;6.10;;;5.25;;
81591;SDS011;71014;53.394;6.724;2023-09-07T09:16:12;5.47;;;4.63;;
81591;SDS011;71014;53.394;6.724;2023-09-07T09:18:38;7.15;;;5.25;;
81591;SDS011;71014;53.394;6.724;2023-09-07T09:21:13;8.02;;;4.75;;
81591;SDS011;71014;53.394;6.724;2023-09-07T09:23:39;6.13;;;5.10;;
81591;SDS011;71014;53.394;6.724;2023-09-07T09:26:06;11.10;;;5.95;;
81591;SDS011;71014;53.394;6.724;2023-09-07T09:28:32;8.07;;;5.20;;
81591;SDS011;71014;53.394;6.724;2023-09-07T09:30:59;10.13;;;4.82;;
81591;SDS011;71014;53.394;6.724;2023-09-07T09:33:25;6.60;;;5.05;;
81591;SDS011;71014;53.394;6.724;2023-09-07T09:35:53;5.35;;;4.82;;
81591;SDS011;71014;53.394;6.724;2023-09-07T09:38:20;7.55;;;5.10;;
81591;SDS011;71014;53.394;6.724;2023-09-07T09:40:46;7.28;;;5.35;;
81591;SDS011;71014;53.394;6.724;2023-09-07T09:43:12;5.93;;;5.30;;
81591;SDS011;71014;53.394;6.724;2023-09-07T09:45:38;5.75;;;4.97;;
81591;SDS011;71014;53.394;6.724;2023-09-07T09:48:04;8.18;;;4.50;;
81591;SDS011;71014;53.394;6.724;2023-09-07T09:50:31;4.93;;;4.35;;
81591;SDS011;71014;53.394;6.724;2023-09-07T09:52:58;6.20;;;4.40;;
81591;SDS011;71014;53.394;6.724;2023-09-07T09:55:25;4.97;;;4.47;;
81591;SDS011;71014;53.394;6.724;2023-09-07T09:57:52;5.75;;;4.53;;
81591;SDS011;71014;53.394;6.724;2023-09-07T10:00:22;4.88;;;4.43;;
81591;SDS011;71014;53.394;6.724;2023-09-07T10:02:54;11.70;;;4.97;;
81591;SDS011;71014;53.394;6.724;2023-09-07T10:05:21;8.90;;;4.43;;
81591;SDS011;71014;53.394;6.724;2023-09-07T10:07:48;5.13;;;4.38;;
81591;SDS011;71014;53.394;6.724;2023-09-07T10:10:15;6.55;;;4.95;;
81591;SDS011;71014;53.394;6.724;2023-09-07T10:12:42;8.38;;;5.68;;
81591;SDS011;71014;53.394;6.724;2023-09-07T10:15:29;7.20;;;4.70;;
81591;SDS011;71014;53.394;6.724;2023-09-07T10:23:18;7.45;;;4.15;;
81591;SDS011;71014;53.394;6.724;2023-09-07T10:25:48;6.10;;;4.18;;
81591;SDS011;71014;53.394;6.724;2023-09-07T10:28:22;4.78;;;3.45;;
81591;SDS011;71014;53.394;6.724;2023-09-07T10:33:29;5.00;;;4.50;;
81591;SDS011;71014;53.394;6.724;2023-09-07T10:35:55;5.70;;;4.03;;
81591;SDS011;71014;53.394;6.724;2023-09-07T10:38:22;6.60;;;3.92;;
81591;SDS011;71014;53.394;6.724;2023-09-07T10:40:49;4.50;;;4.00;;
81591;SDS011;71014;53.394;6.724;2023-09-07T10:43:22;7.97;;;4.35;;
81591;SDS011;71014;53.394;6.724;2023-09-07T10:45:48;4.25;;;3.67;;
81591;SDS011;71014;53.394;6.724;2023-09-07T10:48:15;5.88;;;4.03;;
81591;SDS011;71014;53.394;6.724;2023-09-07T10:50:45;5.22;;;3.78;;
81591;SDS011;71014;53.394;6.724;2023-09-07T10:53:15;5.15;;;4.18;;
81591;SDS011;71014;53.394;6.724;2023-09-07T10:55:41;3.92;;;3.55;;
81591;SDS011;71014;53.394;6.724;2023-09-07T10:58:10;4.65;;;3.80;;
81591;SDS011;71014;53.394;6.724;2023-09-07T11:00:36;6.22;;;4.47;;
81591;SDS011;71014;53.394;6.724;2023-09-07T11:03:09;3.60;;;3.28;;
81591;SDS011;71014;53.394;6.724;2023-09-07T11:05:36;4.95;;;3.88;;
81591;SDS011;71014;53.394;6.724;2023-09-07T11:08:06;7.40;;;4.22;;
81591;SDS011;71014;53.394;6.724;2023-09-07T11:10:33;5.68;;;3.63;;
81591;SDS011;71014;53.394;6.724;2023-09-07T11:13:05;7.25;;;4.10;;
81591;SDS011;71014;53.394;6.724;2023-09-07T11:17:58;7.13;;;3.80;;
81591;SDS011;71014;53.394;6.724;2023-09-07T11:20:24;6.00;;;4.13;;
81591;SDS011;71014;53.394;6.724;2023-09-07T11:22:51;4.68;;;3.92;;
81591;SDS011;71014;53.394;6.724;2023-09-07T11:25:17;5.78;;;3.95;;
81591;SDS011;71014;53.394;6.724;2023-09-07T11:27:43;4.50;;;3.88;;
81591;SDS011;71014;53.394;6.724;2023-09-07T11:30:10;4.68;;;3.70;;
81591;SDS011;71014;53.394;6.724;2023-09-07T11:32:36;4.70;;;4.03;;
81591;SDS011;71014;53.394;6.724;2023-09-07T11:35:03;5.75;;;4.20;;
81591;SDS011;71014;53.394;6.724;2023-09-07T11:37:32;5.80;;;3.65;;
81591;SDS011;71014;53.394;6.724;2023-09-07T11:40:00;5.53;;;4.10;;
81591;SDS011;71014;53.394;6.724;2023-09-07T11:42:26;6.72;;;4.40;;
81591;SDS011;71014;53.394;6.724;2023-09-07T11:44:52;6.15;;;3.97;;
81591;SDS011;71014;53.394;6.724;2023-09-07T11:47:18;5.15;;;4.30;;
81591;SDS011;71014;53.394;6.724;2023-09-07T11:49:44;4.28;;;3.75;;
81591;SDS011;71014;53.394;6.724;2023-09-07T11:52:10;5.32;;;3.85;;
81591;SDS011;71014;53.394;6.724;2023-09-07T11:54:36;4.97;;;4.13;;
81591;SDS011;71014;53.394;6.724;2023-09-07T11:57:02;8.07;;;4.03;;
81591;SDS011;71014;53.394;6.724;2023-09-07T11:59:28;7.90;;;4.65;;
81591;SDS011;71014;53.394;6.724;2023-09-07T12:01:54;4.80;;;3.60;;
81591;SDS011;71014;53.394;6.724;2023-09-07T12:04:20;5.03;;;4.30;;
81591;SDS011;71014;53.394;6.724;2023-09-07T12:06:46;6.72;;;4.22;;
81591;SDS011;71014;53.394;6.724;2023-09-07T12:09:12;4.22;;;3.65;;
81591;SDS011;71014;53.394;6.724;2023-09-07T12:11:39;4.40;;;4.00;;
81591;SDS011;71014;53.394;6.724;2023-09-07T12:14:07;7.43;;;4.03;;
81591;SDS011;71014;53.394;6.724;2023-09-07T12:16:33;4.35;;;3.95;;
81591;SDS011;71014;53.394;6.724;2023-09-07T12:18:59;4.45;;;3.58;;
81591;SDS011;71014;53.394;6.724;2023-09-07T12:21:25;6.35;;;3.90;;
81591;SDS011;71014;53.394;6.724;2023-09-07T12:23:51;5.90;;;3.50;;
81591;SDS011;71014;53.394;6.724;2023-09-07T12:26:17;5.05;;;3.80;;
81591;SDS011;71014;53.394;6.724;2023-09-07T12:28:45;5.10;;;3.38;;
81591;SDS011;71014;53.394;6.724;2023-09-07T12:31:11;5.00;;;3.97;;
81591;SDS011;71014;53.394;6.724;2023-09-07T12:33:39;5.50;;;3.95;;
81591;SDS011;71014;53.394;6.724;2023-09-07T12:36:05;5.53;;;3.75;;
81591;SDS011;71014;53.394;6.724;2023-09-07T12:38:34;5.60;;;3.70;;
81591;SDS011;71014;53.394;6.724;2023-09-07T12:41:00;7.03;;;3.80;;
81591;SDS011;71014;53.394;6.724;2023-09-07T12:43:26;5.35;;;3.72;;
81591;SDS011;71014;53.394;6.724;2023-09-07T12:45:52;6.53;;;3.60;;
81591;SDS011;71014;53.394;6.724;2023-09-07T12:48:19;8.38;;;4.05;;
81591;SDS011;71014;53.394;6.724;2023-09-07T12:50:45;4.85;;;3.78;;
81591;SDS011;71014;53.394;6.724;2023-09-07T12:53:11;4.30;;;3.90;;
81591;SDS011;71014;53.394;6.724;2023-09-07T12:55:37;5.35;;;3.92;;
81591;SDS011;71014;53.394;6.724;2023-09-07T12:58:03;4.07;;;3.47;;
81591;SDS011;71014;53.394;6.724;2023-09-07T13:00:29;4.82;;;3.75;;
81591;SDS011;71014;53.394;6.724;2023-09-07T13:02:55;5.07;;;3.40;;
81591;SDS011;71014;53.394;6.724;2023-09-07T13:05:21;4.88;;;3.88;;
81591;SDS011;71014;53.394;6.724;2023-09-07T13:07:48;4.15;;;3.72;;
81591;SDS011;71014;53.394;6.724;2023-09-07T13:10:14;3.58;;;3.22;;
81591;SDS011;71014;53.394;6.724;2023-09-07T13:12:40;4.55;;;3.90;;
81591;SDS011;71014;53.394;6.724;2023-09-07T13:15:06;4.35;;;3.30;;
81591;SDS011;71014;53.394;6.724;2023-09-07T13:17:33;4.88;;;4.15;;
81591;SDS011;71014;53.394;6.724;2023-09-07T13:19:59;4.45;;;3.78;;
81591;SDS011;71014;53.394;6.724;2023-09-07T13:22:25;3.58;;;3.20;;
81591;SDS011;71014;53.394;6.724;2023-09-07T13:24:51;4.03;;;3.30;;
81591;SDS011;71014;53.394;6.724;2023-09-07T13:27:17;5.18;;;4.20;;
81591;SDS011;71014;53.394;6.724;2023-09-07T13:29:43;3.97;;;3.20;;
81591;SDS011;71014;53.394;6.724;2023-09-07T13:32:09;4.38;;;3.97;;
81591;SDS011;71014;53.394;6.724;2023-09-07T13:34:35;3.88;;;3.58;;
81591;SDS011;71014;53.394;6.724;2023-09-07T13:37:01;5.18;;;3.45;;
81591;SDS011;71014;53.394;6.724;2023-09-07T13:39:28;3.90;;;3.47;;
81591;SDS011;71014;53.394;6.724;2023-09-07T13:41:54;4.72;;;3.58;;
81591;SDS011;71014;53.394;6.724;2023-09-07T13:44:20;6.93;;;3.63;;
81591;SDS011;71014;53.394;6.724;2023-09-07T13:46:46;9.75;;;3.60;;
81591;SDS011;71014;53.394;6.724;2023-09-07T13:49:12;4.93;;;4.38;;
81591;SDS011;71014;53.394;6.724;2023-09-07T13:51:39;5.45;;;3.50;;
81591;SDS011;71014;53.394;6.724;2023-09-07T13:54:06;8.85;;;4.10;;
81591;SDS011;71014;53.394;6.724;2023-09-07T13:56:32;3.70;;;3.38;;
81591;SDS011;71014;53.394;6.724;2023-09-07T13:58:59;3.80;;;3.50;;
81591;SDS011;71014;53.394;6.724;2023-09-07T14:01:25;5.60;;;4.30;;
81591;SDS011;71014;53.394;6.724;2023-09-07T14:03:51;4.60;;;3.78;;
81591;SDS011;71014;53.394;6.724;2023-09-07T14:06:17;4.85;;;3.63;;
81591;SDS011;71014;53.394;6.724;2023-09-07T14:08:45;4.32;;;3.83;;
81591;SDS011;71014;53.394;6.724;2023-09-07T14:11:13;4.63;;;4.25;;
81591;SDS011;71014;53.394;6.724;2023-09-07T14:13:39;4.57;;;4.10;;
81591;SDS011;71014;53.394;6.724;2023-09-07T14:16:05;4.47;;;4.07;;
81591;SDS011;71014;53.394;6.724;2023-09-07T14:18:32;7.13;;;3.97;;
81591;SDS011;71014;53.394;6.724;2023-09-07T14:20:58;5.13;;;4.13;;
81591;SDS011;71014;53.394;6.724;2023-09-07T14:23:26;5.30;;;4.05;;
81591;SDS011;71014;53.394;6.724;2023-09-07T14:25:52;5.22;;;3.83;;
81591;SDS011;71014;53.394;6.724;2023-09-07T14:28:18;4.38;;;3.97;;
81591;SDS011;71014;53.394;6.724;2023-09-07T14:30:44;4.85;;;3.83;;
81591;SDS011;71014;53.394;6.724;2023-09-07T14:33:10;6.30;;;4.43;;
81591;SDS011;71014;53.394;6.724;2023-09-07T14:35:36;5.78;;;4.10;;
81591;SDS011;71014;53.394;6.724;2023-09-07T14:38:02;4.78;;;4.38;;
81591;SDS011;71014;53.394;6.724;2023-09-07T14:40:29;4.63;;;4.00;;
81591;SDS011;71014;53.394;6.724;2023-09-07T14:42:55;5.45;;;4.47;;
81591;SDS011;71014;53.394;6.724;2023-09-07T14:45:24;6.25;;;4.10;;
81591;SDS011;71014;53.394;6.724;2023-09-07T14:47:50;4.38;;;4.07;;
81591;SDS011;71014;53.394;6.724;2023-09-07T14:50:17;3.95;;;3.65;;
81591;SDS011;71014;53.394;6.724;2023-09-07T14:52:43;4.35;;;3.95;;
81591;SDS011;71014;53.394;6.724;2023-09-07T14:55:12;5.85;;;3.90;;
81591;SDS011;71014;53.394;6.724;2023-09-07T14:57:39;6.47;;;3.90;;
81591;SDS011;71014;53.394;6.724;2023-09-07T15:00:05;7.93;;;3.88;;
81591;SDS011;71014;53.394;6.724;2023-09-07T15:02:32;5.53;;;3.42;;
81591;SDS011;71014;53.394;6.724;2023-09-07T15:04:58;5.03;;;3.80;;
81591;SDS011;71014;53.394;6.724;2023-09-07T15:07:24;6.05;;;4.03;;
81591;SDS011;71014;53.394;6.724;2023-09-07T15:09:50;4.07;;;3.67;;
81591;SDS011;71014;53.394;6.724;2023-09-07T15:12:16;4.30;;;3.80;;
81591;SDS011;71014;53.394;6.724;2023-09-07T15:14:42;5.50;;;4.05;;
81591;SDS011;71014;53.394;6.724;2023-09-07T15:17:09;4.75;;;4.07;;
81591;SDS011;71014;53.394;6.724;2023-09-07T15:19:37;6.05;;;3.92;;
81591;SDS011;71014;53.394;6.724;2023-09-07T15:22:03;6.47;;;4.00;;
81591;SDS011;71014;53.394;6.724;2023-09-07T15:24:29;4.10;;;3.70;;
81591;SDS011;71014;53.394;6.724;2023-09-07T15:26:55;5.38;;;4.28;;
81591;SDS011;71014;53.394;6.724;2023-09-07T15:29:21;5.60;;;4.25;;
81591;SDS011;71014;53.394;6.724;2023-09-07T15:31:47;4.88;;;4.32;;
81591;SDS011;71014;53.394;6.724;2023-09-07T15:34:15;5.63;;;4.38;;
81591;SDS011;71014;53.394;6.724;2023-09-07T15:36:41;5.60;;;4.47;;
81591;SDS011;71014;53.394;6.724;2023-09-07T15:39:09;6.97;;;4.30;;